createdAt,value
2023-04-23T00:01:58.441Z,42.67
2023-04-23T00:05:06.336Z,44.67
2023-04-23T00:08:10.573Z,44.51
2023-04-23T00:11:12.747Z,43.13
2023-04-23T00:14:14.891Z,42.69
2023-04-23T00:17:16.690Z,43.93
2023-04-23T00:20:18.749Z,46.09
2023-04-23T00:23:21.373Z,43.40
2023-04-23T00:26:23.295Z,43.63
2023-04-23T00:29:25.746Z,42.31
2023-04-23T00:36:09.338Z,40.84
2023-04-23T00:39:11.632Z,41.87
2023-04-23T00:42:13.963Z,44.99
2023-04-23T00:45:16.796Z,45.99
2023-04-23T00:48:19.014Z,45.38
2023-04-23T00:51:24.586Z,48.29
2023-04-23T00:54:27.426Z,47.84
2023-04-23T00:57:29.439Z,46.25
2023-04-23T01:00:31.341Z,47.16
2023-04-23T01:03:36.761Z,50.95
2023-04-23T01:06:39.077Z,50.81
2023-04-23T01:09:41.640Z,54.20
2023-04-23T01:12:43.657Z,52.93
2023-04-23T01:15:45.667Z,53.09
2023-04-23T01:18:47.704Z,47.74
2023-04-23T01:21:50.705Z,46.00
2023-04-23T01:24:53.055Z,47.47
2023-04-23T01:27:55.742Z,43.98
2023-04-23T01:30:59.166Z,43.19
2023-04-23T01:51:55.208Z,48.10
2023-04-23T02:01:17.555Z,47.45
2023-04-23T02:04:20.302Z,43.83
2023-04-23T02:07:22.337Z,48.02
2023-04-23T02:10:25.786Z,53.49
2023-04-23T02:13:27.735Z,55.35
2023-04-23T02:16:29.801Z,56.21
2023-04-23T02:19:34.557Z,54.67
2023-04-23T02:22:39.214Z,52.68
2023-04-23T02:25:43.464Z,49.50
2023-04-23T02:28:46.497Z,48.00
2023-04-23T02:31:48.554Z,47.30
2023-04-23T02:34:50.613Z,46.23
2023-04-23T02:37:54.470Z,50.15
2023-04-23T02:40:56.470Z,43.92
2023-04-23T02:43:58.847Z,41.83
2023-04-23T02:47:01.303Z,41.67
2023-04-23T02:50:06.084Z,46.10
2023-04-23T02:53:08.313Z,48.73
2023-04-23T02:56:10.287Z,47.49
2023-04-23T02:59:12.377Z,49.38
2023-04-23T03:02:14.620Z,51.24
2023-04-23T03:05:16.599Z,51.31
2023-04-23T03:08:18.633Z,50.98
2023-04-23T03:11:21.244Z,50.11
2023-04-23T03:14:23.381Z,50.89
2023-04-23T03:17:25.584Z,46.65
2023-04-23T03:20:28.478Z,50.20
2023-04-23T03:23:30.505Z,51.84
2023-04-23T03:26:32.580Z,53.33
2023-04-23T03:29:34.788Z,52.45
2023-04-23T03:32:36.869Z,52.42
2023-04-23T03:35:38.769Z,52.99
2023-04-23T03:38:45.875Z,52.50
2023-04-23T03:41:48.131Z,52.31
2023-04-23T03:44:51.870Z,54.01
2023-04-23T03:47:53.931Z,54.33
2023-04-23T03:50:56.004Z,54.31
2023-04-23T03:54:10.828Z,53.18
2023-04-23T03:57:30.527Z,50.61
2023-04-23T04:00:48.143Z,51.25
2023-04-23T04:03:50.375Z,47.56
2023-04-23T04:06:52.475Z,48.71
2023-04-23T04:09:54.313Z,49.06
2023-04-23T04:13:00.149Z,52.07
2023-04-23T04:16:02.041Z,55.16
2023-04-23T04:19:03.985Z,54.20
2023-04-23T04:22:07.063Z,54.83
2023-04-23T04:25:09.754Z,53.79
2023-04-23T04:28:12.032Z,53.69
2023-04-23T04:31:16.047Z,53.63
2023-04-23T04:34:18.388Z,56.16
2023-04-23T04:37:21.385Z,55.10
2023-04-23T04:40:23.320Z,53.25
2023-04-23T04:43:25.159Z,50.52
2023-04-23T04:46:29.320Z,51.26
2023-04-23T04:49:31.304Z,49.79
2023-04-23T04:52:33.308Z,48.50
2023-04-23T04:55:35.226Z,50.38
2023-04-23T04:58:37.135Z,48.39
2023-04-23T05:01:39.131Z,49.15
2023-04-23T05:04:41.381Z,49.22
2023-04-23T05:07:43.612Z,48.44
2023-04-23T05:10:45.877Z,48.03
2023-04-23T05:13:48.307Z,48.95
2023-04-23T05:16:50.369Z,44.69
2023-04-23T05:19:52.461Z,46.33
2023-04-23T05:22:54.997Z,45.70
2023-04-23T05:25:58.439Z,47.61
2023-04-23T05:29:00.374Z,46.81
2023-04-23T05:32:02.664Z,43.79
2023-04-23T05:35:05.356Z,45.51
2023-04-23T05:38:07.385Z,44.19
2023-04-23T05:41:09.334Z,44.33
2023-04-23T05:44:11.260Z,42.69
2023-04-23T05:47:14.329Z,43.17
2023-04-23T05:50:16.461Z,43.37
2023-04-23T05:53:18.516Z,44.17
2023-04-23T05:56:21.038Z,43.90
2023-04-23T05:59:23.355Z,44.11
2023-04-23T06:02:25.852Z,44.42
2023-04-23T06:05:27.889Z,42.71
2023-04-23T06:08:29.944Z,43.88
2023-04-23T06:11:36.062Z,41.17
2023-04-23T06:14:38.103Z,41.17
2023-04-23T06:17:40.385Z,42.84
2023-04-23T06:20:43.695Z,40.51
2023-04-23T06:23:45.694Z,41.89
2023-04-23T06:26:48.079Z,40.15
2023-04-23T06:29:54.176Z,42.30
2023-04-23T06:32:56.687Z,41.37
2023-04-23T06:35:58.544Z,42.82
2023-04-23T06:39:00.484Z,43.53
2023-04-23T06:42:03.006Z,42.69
2023-04-23T06:45:22.062Z,42.75
2023-04-23T06:48:25.896Z,43.07
2023-04-23T06:51:27.921Z,42.53
2023-04-23T06:54:29.848Z,42.81
2023-04-23T06:57:31.745Z,42.96
2023-04-23T07:00:34.024Z,43.12
2023-04-23T07:03:37.086Z,42.79
2023-04-23T07:06:39.055Z,43.72
2023-04-23T07:09:41.853Z,43.08
2023-04-23T07:12:43.818Z,40.00
2023-04-23T07:15:46.524Z,41.93
2023-04-23T07:18:49.659Z,41.01
2023-04-23T07:21:53.409Z,38.67
2023-04-23T07:24:55.363Z,41.65
2023-04-23T07:27:57.417Z,41.28
2023-04-23T07:30:59.446Z,41.48
2023-04-23T07:34:01.510Z,40.77
2023-04-23T07:37:03.857Z,37.09
2023-04-23T07:40:08.022Z,40.67
2023-04-23T07:43:10.142Z,40.34
2023-04-23T07:46:12.563Z,39.52
2023-04-23T07:49:14.858Z,40.64
2023-04-23T07:52:17.174Z,41.46
2023-04-23T07:55:20.478Z,41.81
2023-04-23T07:58:23.165Z,40.26
2023-04-23T08:01:25.478Z,42.31
2023-04-23T08:04:27.964Z,40.03
2023-04-23T08:07:30.164Z,34.85
2023-04-23T08:10:32.354Z,36.13
2023-04-23T08:13:34.492Z,37.05
2023-04-23T08:16:38.742Z,36.81
2023-04-23T08:19:41.254Z,37.33
2023-04-23T08:22:43.525Z,33.92
2023-04-23T08:25:45.607Z,32.18
2023-04-23T08:28:47.524Z,33.32
2023-04-23T08:31:49.571Z,33.81
2023-04-23T08:34:51.791Z,33.28
2023-04-23T08:37:53.661Z,34.08
2023-04-23T08:40:57.750Z,33.96
2023-04-23T08:44:07.631Z,32.91
2023-04-23T08:47:12.482Z,34.81
2023-04-23T08:50:20.011Z,33.19
2023-04-23T08:53:25.829Z,34.23
2023-04-23T08:56:28.278Z,33.88
2023-04-23T08:59:32.064Z,32.62
2023-04-23T09:02:40.061Z,34.80
2023-04-23T09:05:42.430Z,35.66
2023-04-23T09:08:45.654Z,35.04
2023-04-23T09:11:47.772Z,33.23
2023-04-23T09:14:51.073Z,31.92
2023-04-23T09:17:53.048Z,32.15
2023-04-23T09:20:55.804Z,31.40
2023-04-23T09:23:58.403Z,32.44
2023-04-23T09:27:00.291Z,32.83
2023-04-23T09:30:05.204Z,32.84
2023-04-23T09:33:07.289Z,32.04
2023-04-23T09:36:15.371Z,34.27
2023-04-23T09:39:22.434Z,30.31
2023-04-23T09:42:24.798Z,29.80
2023-04-23T09:45:29.934Z,26.83
2023-04-23T09:48:43.835Z,31.21
2023-04-23T09:51:47.788Z,30.61
2023-04-23T09:54:49.948Z,28.80
2023-04-23T09:57:53.177Z,28.70
2023-04-23T10:01:07.521Z,30.18
2023-04-23T10:04:12.667Z,29.82
2023-04-23T10:07:20.204Z,29.54
2023-04-23T10:10:22.509Z,28.81
2023-04-23T10:13:25.835Z,27.93
2023-04-23T10:16:32.985Z,28.52
2023-04-23T10:19:43.604Z,27.02
2023-04-23T10:22:46.711Z,28.43
2023-04-23T10:25:48.816Z,29.08
2023-04-23T10:28:54.298Z,27.78
2023-04-23T10:31:59.414Z,28.02
2023-04-23T10:35:01.480Z,28.08
2023-04-23T10:38:04.515Z,26.46
2023-04-23T10:41:08.376Z,27.02
2023-04-23T10:44:17.245Z,26.21
2023-04-23T10:47:20.768Z,28.16
2023-04-23T10:50:30.120Z,26.81
2023-04-23T10:53:32.249Z,26.87
2023-04-23T10:56:34.243Z,26.08
2023-04-23T10:59:40.044Z,27.29
2023-04-23T11:02:45.192Z,27.29
2023-04-23T11:05:47.317Z,25.16
2023-04-23T11:08:56.703Z,26.59
2023-04-23T11:12:00.142Z,27.29
2023-04-23T11:15:16.150Z,24.79
2023-04-23T11:18:18.136Z,24.32
2023-04-23T11:21:20.287Z,27.23
2023-04-23T11:24:23.852Z,26.20
2023-04-23T11:27:25.954Z,25.80
2023-04-23T11:30:29.659Z,25.41
2023-04-23T11:33:31.732Z,24.77
2023-04-23T11:36:34.632Z,26.51
2023-04-23T11:39:44.266Z,26.44
2023-04-23T11:42:49.498Z,26.48
2023-04-23T11:45:51.514Z,25.83
2023-04-23T11:48:53.676Z,26.84
2023-04-23T11:51:55.712Z,26.11
2023-04-23T11:55:03.077Z,24.90
2023-04-23T11:58:05.082Z,25.11
2023-04-23T12:01:08.042Z,25.60
2023-04-23T12:04:20.522Z,25.13
2023-04-23T12:07:32.633Z,23.99
2023-04-23T12:10:43.817Z,27.09
2023-04-23T12:13:45.883Z,25.32
2023-04-23T12:16:52.457Z,25.38
2023-04-23T12:19:54.629Z,24.59
2023-04-23T12:23:03.750Z,24.54
2023-04-23T12:26:11.605Z,25.42
2023-04-23T12:29:13.948Z,24.22
2023-04-23T12:32:15.927Z,27.34
2023-04-23T12:35:17.970Z,27.51
2023-04-23T12:38:30.186Z,25.18
2023-04-23T12:41:33.619Z,25.86
2023-04-23T12:44:37.740Z,24.42
2023-04-23T12:47:41.620Z,23.22
2023-04-23T12:50:46.425Z,25.85
2023-04-23T12:53:48.287Z,24.01
2023-04-23T12:56:50.219Z,25.63
2023-04-23T12:59:52.222Z,24.99
2023-04-23T13:02:56.228Z,25.92
2023-04-23T13:05:58.432Z,25.63
2023-04-23T13:09:03.435Z,26.20
2023-04-23T13:12:05.623Z,26.29
2023-04-23T13:15:09.211Z,26.58
2023-04-23T13:18:11.096Z,26.41
2023-04-23T13:21:13.043Z,27.57
2023-04-23T13:24:15.167Z,27.57
2023-04-23T13:27:17.092Z,26.70
2023-04-23T13:30:19.783Z,25.99
2023-04-23T13:33:21.837Z,25.80
2023-04-23T13:36:25.001Z,27.79
2023-04-23T13:39:26.988Z,27.51
2023-04-23T13:42:28.930Z,27.72
2023-04-23T13:45:30.895Z,28.13
2023-04-23T13:48:33.485Z,29.66
2023-04-23T13:51:36.211Z,28.30
2023-04-23T13:54:39.295Z,28.42
2023-04-23T13:57:41.272Z,27.19
2023-04-23T14:00:43.700Z,27.57
2023-04-23T14:03:46.083Z,28.38
2023-04-23T14:06:47.940Z,26.80
2023-04-23T14:09:52.783Z,27.03
2023-04-23T14:12:55.593Z,26.59
2023-04-23T14:15:57.612Z,25.82
2023-04-23T14:18:59.503Z,26.39
2023-04-23T14:22:01.439Z,25.99
2023-04-23T14:25:09.707Z,26.11
2023-04-23T14:28:34.119Z,26.73
2023-04-23T14:31:38.158Z,26.45
2023-04-23T14:34:40.374Z,26.61
2023-04-23T14:37:45.352Z,26.06
2023-04-23T14:40:47.564Z,27.64
2023-04-23T14:43:49.482Z,27.02
2023-04-23T14:46:51.365Z,26.68
2023-04-23T14:49:53.877Z,25.72
2023-04-23T14:52:56.034Z,25.43
2023-04-23T14:55:58.777Z,25.93
2023-04-23T14:59:01.796Z,25.54
2023-04-23T15:02:04.051Z,24.81
2023-04-23T15:05:25.856Z,24.37
2023-04-23T15:08:47.646Z,24.64
2023-04-23T15:12:35.230Z,24.39
2023-04-23T15:16:02.410Z,25.20
2023-04-23T15:19:24.448Z,25.36
2023-04-23T15:22:49.352Z,24.91
2023-04-23T15:26:11.213Z,25.05
2023-04-23T15:29:32.980Z,24.94
2023-04-23T15:32:57.972Z,25.33
2023-04-23T15:36:19.784Z,23.88
2023-04-23T15:39:41.870Z,25.03
2023-04-23T15:43:03.815Z,23.98
2023-04-23T15:46:25.670Z,25.82
2023-04-23T15:49:48.612Z,24.65
2023-04-23T15:52:50.616Z,25.99
2023-04-23T15:55:52.620Z,25.07
2023-04-23T15:58:54.627Z,25.07
2023-04-23T16:02:17.932Z,25.84
2023-04-23T16:05:39.996Z,26.11
2023-04-23T16:08:41.862Z,26.54
2023-04-23T16:11:43.800Z,27.45
2023-04-23T16:14:46.066Z,26.52
2023-04-23T16:17:48.839Z,26.60
2023-04-23T16:20:50.974Z,27.37
2023-04-23T16:23:52.873Z,28.96
2023-04-23T16:26:55.094Z,27.98
2023-04-23T16:47:53.963Z,31.14
2023-04-23T16:50:57.691Z,31.55
2023-04-23T16:54:00.197Z,33.20
2023-04-23T16:57:04.375Z,33.36
2023-04-23T17:00:06.928Z,33.71
2023-04-23T17:03:09.505Z,34.00
2023-04-23T17:06:13.072Z,33.72
2023-04-23T17:09:15.075Z,35.37
2023-04-23T17:12:17.346Z,35.33
2023-04-23T17:15:19.463Z,36.19
2023-04-23T17:18:21.512Z,36.26
2023-04-23T17:21:24.115Z,36.27
2023-04-23T17:24:26.141Z,36.08
2023-04-23T17:27:28.404Z,36.89
2023-04-23T17:30:30.522Z,36.74
2023-04-23T17:33:33.508Z,36.77
2023-04-23T17:36:35.995Z,36.55
2023-04-23T17:39:38.352Z,36.80
2023-04-23T17:42:40.340Z,36.15
2023-04-23T17:45:43.187Z,36.47
2023-04-23T17:48:45.434Z,37.46
2023-04-23T17:51:47.907Z,37.15
2023-04-23T17:54:50.057Z,37.81
2023-04-23T17:57:52.470Z,38.53
2023-04-23T18:00:55.168Z,38.42
2023-04-23T18:03:57.666Z,38.42
2023-04-23T18:06:59.967Z,38.62
2023-04-23T18:10:03.380Z,38.94
2023-04-23T18:13:07.278Z,39.22
2023-04-23T18:16:09.454Z,38.84
2023-04-23T18:19:11.928Z,39.05
2023-04-23T18:22:14.015Z,39.06
2023-04-23T18:25:15.999Z,40.01
2023-04-23T18:28:18.075Z,39.65
2023-04-23T18:31:20.124Z,39.17
2023-04-23T18:34:23.820Z,39.76
2023-04-23T18:37:38.307Z,39.29
2023-04-23T18:40:40.474Z,39.44
2023-04-23T18:43:43.118Z,40.44
2023-04-23T18:46:45.809Z,40.53
2023-04-23T18:50:02.859Z,41.40
2023-04-23T18:53:05.334Z,41.93
2023-04-23T18:56:14.860Z,41.73
2023-04-23T18:59:18.687Z,41.49
2023-04-23T19:02:34.416Z,43.13
2023-04-23T19:05:37.723Z,42.47
2023-04-23T19:08:42.023Z,42.35
2023-04-23T19:11:45.191Z,42.03
2023-04-23T19:14:47.470Z,40.88
2023-04-23T19:17:49.639Z,41.86
2023-04-23T19:20:52.746Z,40.36
2023-04-23T19:23:56.508Z,40.78
2023-04-23T19:26:58.398Z,39.93
2023-04-23T19:30:01.150Z,40.08
2023-04-23T19:33:04.398Z,41.43
2023-04-23T19:36:06.588Z,43.31
2023-04-23T19:39:10.366Z,42.65
2023-04-23T19:42:12.708Z,44.81
2023-04-23T19:45:17.731Z,45.26
2023-04-23T19:48:20.706Z,43.13
2023-04-23T19:51:27.952Z,41.69
2023-04-23T19:54:30.557Z,43.65
2023-04-23T19:57:32.702Z,45.64
2023-04-23T20:00:41.485Z,45.79
2023-04-23T20:03:47.677Z,42.46
2023-04-23T20:06:49.672Z,43.50
2023-04-23T20:09:51.939Z,44.72
2023-04-23T20:12:53.821Z,46.71
2023-04-23T20:15:55.751Z,45.64
2023-04-23T20:18:58.067Z,43.17
2023-04-23T20:22:07.695Z,43.72
2023-04-23T20:25:10.197Z,44.73
2023-04-23T20:28:12.483Z,43.99
2023-04-23T20:31:14.860Z,43.01
2023-04-23T20:34:17.257Z,43.48
2023-04-23T20:37:21.714Z,43.90
2023-04-23T20:40:24.988Z,43.49
2023-04-23T20:43:27.440Z,43.49
2023-04-23T20:46:32.989Z,43.51
2023-04-23T20:49:35.244Z,46.04
2023-04-23T20:52:37.334Z,45.00
2023-04-23T20:55:39.177Z,44.43
2023-04-23T20:58:42.104Z,45.13
2023-04-23T21:01:44.136Z,45.21
2023-04-23T21:04:46.082Z,44.24
2023-04-23T21:07:50.781Z,44.03
2023-04-23T21:10:52.819Z,43.86
2023-04-23T21:13:55.874Z,44.37
2023-04-23T21:16:57.811Z,44.21
2023-04-23T21:19:59.741Z,44.33
2023-04-23T21:23:01.844Z,43.97
2023-04-23T21:26:03.867Z,44.21
2023-04-23T21:29:05.792Z,44.40
2023-04-23T21:32:09.334Z,44.88
2023-04-23T21:35:11.606Z,44.76
2023-04-23T21:38:13.855Z,46.80
2023-04-23T21:41:15.815Z,44.83
2023-04-23T21:44:18.010Z,44.22
2023-04-23T21:47:19.951Z,45.06
2023-04-23T21:50:22.143Z,45.38
2023-04-23T21:53:25.167Z,44.96
2023-04-23T21:56:27.280Z,44.86
2023-04-23T21:59:29.162Z,44.45
2023-04-23T22:02:32.524Z,44.19
2023-04-23T22:05:36.262Z,44.71
2023-04-23T22:08:40.393Z,44.76
2023-04-23T22:11:49.091Z,48.19
2023-04-23T22:15:03.149Z,49.39
2023-04-23T22:18:05.484Z,52.52
2023-04-23T22:21:07.766Z,52.91
2023-04-23T22:24:09.642Z,52.50
2023-04-23T22:27:11.613Z,50.95
2023-04-23T22:30:13.917Z,49.64
2023-04-23T22:33:15.856Z,49.53
2023-04-23T22:36:17.782Z,51.00
2023-04-23T22:39:20.018Z,50.93
2023-04-23T22:42:21.983Z,50.64
2023-04-23T22:45:23.862Z,51.50
2023-04-23T22:48:27.837Z,52.22
2023-04-23T22:51:33.522Z,52.12
2023-04-23T22:54:35.625Z,52.37
2023-04-23T22:57:37.544Z,52.05
2023-04-23T23:00:39.521Z,53.86
2023-04-23T23:03:41.650Z,52.79
2023-04-23T23:06:43.700Z,51.69
2023-04-23T23:09:45.602Z,52.36
2023-04-23T23:12:47.547Z,52.38
2023-04-23T23:15:49.859Z,52.94
2023-04-23T23:18:51.815Z,53.45
2023-04-23T23:21:53.934Z,53.83
2023-04-23T23:24:55.994Z,52.81
2023-04-23T23:27:57.801Z,53.55
2023-04-23T23:30:59.853Z,53.80
2023-04-23T23:34:02.521Z,53.71
2023-04-23T23:37:04.610Z,55.04
2023-04-23T23:40:07.331Z,55.77
2023-04-23T23:43:09.318Z,54.36
2023-04-23T23:46:11.259Z,54.54
2023-04-23T23:49:14.412Z,53.48
2023-04-23T23:52:16.452Z,53.92
2023-04-23T23:55:18.911Z,56.26
2023-04-23T23:58:21.740Z,55.17
